Terminal Aerodrome Forecast
Issued by NWS Missoula, MT

Home | Current Version | Previous Version | Text Only | Print | Product List | Glossary On
Versions: 1 2 3 4 5 6 7 8 9 10 11 12 13
894
FTUS45 KMSO 211731
TAFBTM
TAF
KBTM 211731Z 2118/2218 24015G30KT P6SM VCSH SCT050
     FM220100 26010KT P6SM VCSH BKN060
     FM221000 28005KT P6SM VCSH SCT040 BKN050=

USA.gov is the U.S. government's official web portal to all federal, state and local government web resources and services.